createdAt,value
2022-09-12T00:02:08.029Z,4.43
2022-09-12T00:07:28.601Z,3.92
2022-09-12T00:12:49.322Z,4.63
2022-09-12T00:18:14.479Z,4.85
2022-09-12T00:23:35.048Z,5.28
2022-09-12T00:28:55.890Z,5.65
2022-09-12T00:34:16.617Z,3.95
2022-09-12T00:39:37.229Z,4.00
2022-09-12T00:44:58.117Z,3.72
2022-09-12T00:50:19.466Z,4.32
2022-09-12T00:55:43.635Z,4.57
2022-09-12T01:01:04.568Z,4.65
2022-09-12T01:06:31.094Z,6.57
2022-09-12T01:11:53.623Z,5.10
2022-09-12T01:17:15.317Z,4.05
2022-09-12T01:22:51.014Z,4.32
2022-09-12T01:28:46.161Z,6.15
2022-09-12T01:34:21.990Z,4.88
2022-09-12T01:39:58.105Z,3.38
2022-09-12T01:45:48.309Z,3.60
2022-09-12T01:56:39.210Z,4.43
2022-09-12T02:02:13.679Z,6.88
2022-09-12T02:07:45.053Z,5.60
2022-09-12T02:13:50.687Z,3.15
2022-09-12T02:19:34.511Z,5.13
2022-09-12T02:24:59.955Z,8.23
2022-09-12T02:30:22.871Z,2.53
2022-09-12T02:35:52.968Z,5.78
2022-09-12T02:41:17.581Z,4.65
2022-09-12T02:46:46.870Z,6.20
2022-09-12T02:52:07.924Z,2.50
2022-09-12T02:57:28.733Z,4.97
2022-09-12T03:03:26.991Z,2.50
2022-09-12T03:09:16.157Z,4.18
2022-09-12T03:14:39.955Z,3.47
2022-09-12T03:20:10.358Z,4.57
2022-09-12T03:25:48.547Z,6.00
2022-09-12T03:31:15.031Z,4.72
2022-09-12T03:36:35.907Z,3.65
2022-09-12T03:41:57.319Z,4.07
2022-09-12T03:47:18.242Z,3.13
2022-09-12T03:52:38.905Z,4.15
2022-09-12T03:57:59.656Z,4.68
2022-09-12T04:03:20.494Z,4.03
2022-09-12T04:08:42.416Z,4.30
2022-09-12T04:14:03.025Z,6.53
2022-09-12T04:19:23.816Z,4.18
2022-09-12T04:24:44.671Z,5.35
2022-09-12T04:30:06.263Z,5.18
2022-09-12T04:35:27.648Z,3.78
2022-09-12T04:40:48.511Z,4.32
2022-09-12T04:46:11.494Z,6.18
2022-09-12T04:51:35.912Z,4.25
2022-09-12T04:56:56.526Z,5.18
2022-09-12T05:02:17.307Z,4.43
2022-09-12T05:07:37.912Z,5.95
2022-09-12T05:12:58.622Z,2.47
2022-09-12T05:18:19.419Z,4.55
2022-09-12T05:23:40.584Z,4.78
2022-09-12T05:29:04.758Z,3.08
2022-09-12T05:34:25.692Z,6.95
2022-09-12T05:39:46.547Z,4.63
2022-09-12T05:45:07.473Z,5.85
2022-09-12T05:50:28.309Z,4.45
2022-09-12T05:55:49.264Z,4.90
2022-09-12T06:01:14.726Z,7.40
2022-09-12T06:06:38.575Z,7.10
2022-09-12T06:11:59.549Z,8.68
2022-09-12T06:17:20.571Z,8.13
2022-09-12T06:22:41.446Z,7.05
2022-09-12T06:28:02.323Z,6.22
2022-09-12T06:33:23.214Z,8.45
2022-09-12T06:38:46.364Z,4.45
2022-09-12T06:44:07.284Z,7.55
2022-09-12T06:49:28.016Z,8.45
2022-09-12T06:54:49.214Z,7.18
2022-09-12T07:00:10.562Z,5.60
2022-09-12T07:05:34.271Z,8.70
2022-09-12T07:10:55.153Z,13.02
2022-09-12T07:16:19.749Z,8.77
2022-09-12T07:21:41.517Z,7.32
2022-09-12T07:27:02.702Z,6.15
2022-09-12T07:32:23.839Z,8.18
2022-09-12T07:37:44.762Z,7.30
2022-09-12T07:43:05.361Z,7.93
2022-09-12T07:48:28.355Z,8.68
2022-09-12T07:53:49.972Z,6.90
2022-09-12T07:59:11.605Z,6.53
2022-09-12T08:04:32.236Z,8.48
2022-09-12T08:09:53.527Z,7.15
2022-09-12T08:15:14.193Z,7.55
2022-09-12T08:20:34.732Z,8.27
2022-09-12T08:25:57.527Z,5.68
2022-09-12T08:31:20.454Z,6.93
2022-09-12T08:36:41.456Z,7.50
2022-09-12T08:42:03.758Z,9.23
2022-09-12T08:47:32.547Z,6.95
2022-09-12T08:53:02.516Z,7.67
2022-09-12T09:04:10.142Z,9.00
2022-09-12T09:09:44.686Z,5.95
2022-09-12T09:15:26.259Z,7.13
2022-09-12T09:20:54.296Z,7.68
2022-09-12T09:26:30.517Z,4.97
2022-09-12T09:31:58.257Z,5.00
2022-09-12T09:37:21.378Z,4.90
2022-09-12T09:42:51.759Z,5.18
2022-09-12T09:48:22.521Z,4.45
2022-09-12T09:53:51.826Z,5.22
2022-09-12T09:59:25.810Z,3.80
2022-09-12T10:04:57.786Z,3.88
2022-09-12T10:10:22.919Z,2.92
2022-09-12T10:15:57.857Z,2.22
2022-09-12T10:21:46.228Z,2.85
2022-09-12T10:27:20.297Z,4.35
2022-09-12T10:32:48.794Z,2.72
2022-09-12T10:38:30.407Z,2.28
2022-09-12T10:43:51.282Z,4.78
2022-09-12T10:49:27.247Z,4.70
2022-09-12T10:54:50.537Z,2.40
2022-09-12T11:00:20.600Z,2.67
2022-09-12T11:05:57.756Z,3.70
2022-09-12T11:11:24.546Z,1.42
2022-09-12T11:16:58.728Z,2.10
2022-09-12T11:22:53.040Z,1.70
2022-09-12T11:28:22.517Z,1.88
2022-09-12T11:33:50.250Z,2.95
2022-09-12T11:39:15.567Z,2.17
2022-09-12T11:44:46.184Z,3.33
2022-09-12T11:50:23.428Z,2.35
2022-09-12T11:56:00.069Z,3.30
2022-09-12T12:01:26.337Z,2.85
2022-09-12T12:07:02.255Z,2.17
2022-09-12T12:12:28.259Z,3.72
2022-09-12T12:18:32.334Z,2.08
2022-09-12T12:24:10.146Z,2.60
2022-09-12T12:29:43.617Z,4.10
2022-09-12T12:35:47.347Z,4.88
2022-09-12T12:41:17.508Z,3.47
2022-09-12T12:46:38.654Z,4.18
2022-09-12T12:52:03.757Z,4.60
2022-09-12T12:57:40.852Z,2.63
2022-09-12T13:03:27.799Z,3.65
2022-09-12T13:09:00.447Z,3.05
2022-09-12T13:14:43.075Z,7.60
2022-09-12T13:20:29.910Z,2.97
2022-09-12T13:25:56.513Z,2.55
2022-09-12T13:31:24.224Z,2.47
2022-09-12T13:36:54.567Z,3.45
2022-09-12T13:42:36.400Z,2.40
2022-09-12T13:48:02.007Z,4.03
2022-09-12T13:53:26.148Z,3.13
2022-09-12T13:58:57.606Z,2.92
2022-09-12T14:04:40.165Z,2.80
2022-09-12T14:10:02.115Z,4.65
2022-09-12T14:15:30.711Z,2.20
2022-09-12T14:20:53.332Z,2.83
2022-09-12T14:26:15.443Z,2.45
2022-09-12T14:31:38.403Z,2.30
2022-09-12T14:36:59.761Z,6.25
2022-09-12T14:42:23.784Z,2.15
2022-09-12T14:47:50.320Z,2.60
2022-09-12T14:53:17.221Z,1.55
2022-09-12T14:58:42.247Z,2.00
2022-09-12T15:04:03.036Z,2.97
2022-09-12T15:09:23.596Z,1.67
2022-09-12T15:14:44.183Z,2.30
2022-09-12T15:20:05.639Z,2.33
2022-09-12T15:25:26.811Z,1.50
2022-09-12T15:30:50.569Z,2.10
2022-09-12T15:36:15.758Z,1.67
2022-09-12T15:41:38.304Z,1.50
2022-09-12T15:46:59.185Z,3.30
2022-09-12T15:52:19.822Z,2.08
2022-09-12T15:57:40.506Z,2.97
2022-09-12T16:03:01.321Z,2.28
2022-09-12T16:08:22.081Z,2.75
2022-09-12T16:13:43.033Z,2.58
2022-09-12T16:19:03.791Z,3.67
2022-09-12T16:24:24.336Z,2.63
2022-09-12T16:29:45.120Z,2.90
2022-09-12T16:35:06.499Z,1.95
2022-09-12T16:40:27.327Z,3.95
2022-09-12T16:45:48.339Z,3.20
2022-09-12T16:51:09.825Z,3.10
2022-09-12T16:56:30.830Z,4.07
2022-09-12T17:01:52.311Z,2.10
2022-09-12T17:07:13.339Z,1.95
2022-09-12T17:12:34.191Z,2.42
2022-09-12T17:17:55.215Z,2.50
2022-09-12T17:23:16.072Z,4.40
2022-09-12T17:28:40.713Z,2.65
2022-09-12T17:34:02.197Z,4.60
2022-09-12T17:39:23.252Z,3.25
2022-09-12T17:44:44.093Z,6.30
2022-09-12T17:50:30.373Z,2.47
2022-09-12T17:55:46.312Z,3.67
2022-09-12T18:01:34.597Z,5.05
2022-09-12T18:06:57.625Z,4.38
2022-09-12T18:12:20.101Z,3.85
2022-09-12T18:17:40.946Z,5.40
2022-09-12T18:23:01.715Z,4.72
2022-09-12T18:28:22.573Z,6.88
2022-09-12T18:33:44.275Z,4.35
2022-09-12T18:39:05.091Z,6.60
2022-09-12T18:44:26.943Z,6.53
2022-09-12T18:49:47.587Z,6.07
2022-09-12T18:55:08.753Z,5.65
2022-09-12T19:00:29.749Z,4.53
2022-09-12T19:05:50.355Z,4.15
2022-09-12T19:11:12.684Z,4.25
2022-09-12T19:16:38.222Z,3.65
2022-09-12T19:21:59.127Z,3.42
2022-09-12T19:27:19.970Z,3.67
2022-09-12T19:32:40.565Z,4.72
2022-09-12T19:38:01.225Z,4.47
2022-09-12T19:43:22.333Z,3.92
2022-09-12T19:48:43.054Z,4.85
2022-09-12T19:54:03.920Z,3.75
2022-09-12T19:59:24.444Z,6.18
2022-09-12T20:04:45.479Z,4.75
2022-09-12T20:10:06.397Z,3.97
2022-09-12T20:15:27.344Z,5.43
2022-09-12T20:20:47.999Z,4.85
2022-09-12T20:26:09.559Z,4.68
2022-09-12T20:31:30.499Z,4.68
2022-09-12T20:36:51.420Z,4.50
2022-09-12T20:42:12.295Z,5.45
2022-09-12T20:47:33.493Z,3.95
2022-09-12T20:52:54.969Z,5.95
2022-09-12T20:58:15.890Z,4.18
2022-09-12T21:03:38.797Z,4.68
2022-09-12T21:09:00.554Z,4.53
2022-09-12T21:14:21.393Z,5.65
2022-09-12T21:19:42.257Z,8.25
2022-09-12T21:25:03.373Z,5.80
2022-09-12T21:30:24.327Z,4.97
2022-09-12T21:35:45.915Z,5.82
2022-09-12T21:41:12.809Z,6.05
2022-09-12T21:46:33.501Z,3.97
2022-09-12T21:51:54.129Z,6.13
2022-09-12T21:57:14.718Z,4.20
2022-09-12T22:02:35.537Z,5.30
2022-09-12T22:07:56.220Z,5.25
2022-09-12T22:13:16.880Z,5.00
2022-09-12T22:18:38.231Z,7.55
2022-09-12T22:24:19.140Z,7.45
2022-09-12T22:29:39.708Z,4.97
2022-09-12T22:35:00.219Z,6.82
2022-09-12T22:40:20.986Z,6.88
2022-09-12T22:45:42.064Z,9.40
2022-09-12T22:51:02.881Z,7.75
2022-09-12T22:56:23.785Z,6.32
2022-09-12T23:01:44.798Z,6.38
2022-09-12T23:07:05.489Z,5.30
2022-09-12T23:12:26.388Z,4.95
2022-09-12T23:17:47.443Z,5.47
2022-09-12T23:23:08.121Z,8.10
2022-09-12T23:28:29.395Z,4.78
2022-09-12T23:33:52.856Z,3.72
2022-09-12T23:39:13.845Z,3.65
2022-09-12T23:44:34.324Z,4.00
2022-09-12T23:49:55.135Z,7.50
2022-09-12T23:55:15.548Z,4.55
